Terminal Aerodrome Forecast
Issued by NWS Des Moines, IA

Home | Current Version | Previous Version | Text Only | Print | Product List | Glossary On
Versions: 1 2 3 4 5 6 7 8 9 10 11 12 13 14 15 16 17 18
000
FTUS43 KDMX 231322 AAA
TAFDSM
TAF AMD
KDSM 231322Z 2313/2412 22007KT P6SM SCT008 BKN025
      TEMPO 2313/2315 SCT003 BKN011
     FM231800 27006KT P6SM SCT035
     FM232300 23004KT P6SM SKC=

USA.gov is the U.S. government's official web portal to all federal, state and local government web resources and services.